Aviation

Port-au-Prince

FTHA31 MTPP 271200
FTHA31 MTPP 271100
TAF MTPP 271100Z 2712/2812 VRB02KT 8000 FEW018 SCT040
TEMPO 2714/2718 12010G20KT
BECMG 2719/2723 29014KT SCT026TCU SCT040
PROB30 TEMPO 2800/2806 08012KT 4500 SHRA SCT020CB BKN030
BECMG 2807/2811 VRB02KT 8000 FEW018=
NNNN


Cap-Haïtien

FTHA31 MTCH 271100
TAF MTCH 271100Z 2712/2812 VRB02KT 8000 FEW018 SCT040
BECMG 2714/2718 04014KT SCT025TCU
PROB30 TEMPO 2800/2806 4500 SHRA SCT024CB BKN040
BECMG 2807/2811 VRB02KT 8000 FEW018=